地図

経路データ

SID SEASON NUMBER BASIN SUBBASIN NAME ISO_TIME NATURE LAT LON WMO_WIND WMO_PRES WMO_AGENCY TRACK_TYPE DIST2LAND LANDFALL IFLAG USA_AGENCY USA_ATCF_ID USA_LAT USA_LON USA_RECORD USA_STATUS USA_WIND USA_PRES USA_SSHS USA_R34_NE USA_R34_SE USA_R34_SW USA_R34_NW USA_R50_NE USA_R50_SE USA_R50_SW USA_R50_NW USA_R64_NE USA_R64_SE USA_R64_SW USA_R64_NW USA_POCI USA_ROCI USA_RMW USA_EYE TOKYO_LAT TOKYO_LON TOKYO_GRADE TOKYO_WIND TOKYO_PRES TOKYO_R50_DIR TOKYO_R50_LONG TOKYO_R50_SHORT TOKYO_R30_DIR TOKYO_R30_LONG TOKYO_R30_SHORT TOKYO_LAND CMA_LAT CMA_LON CMA_CAT CMA_WIND CMA_PRES HKO_LAT HKO_LON HKO_CAT HKO_WIND HKO_PRES NEWDELHI_LAT NEWDELHI_LON NEWDELHI_GRADE NEWDELHI_WIND NEWDELHI_PRES NEWDELHI_CI NEWDELHI_DP NEWDELHI_POCI REUNION_LAT REUNION_LON REUNION_TYPE REUNION_WIND REUNION_PRES REUNION_TNUM REUNION_CI REUNION_RMW REUNION_R34_NE REUNION_R34_SE REUNION_R34_SW REUNION_R34_NW REUNION_R50_NE REUNION_R50_SE REUNION_R50_SW REUNION_R50_NW REUNION_R64_NE REUNION_R64_SE REUNION_R64_SW REUNION_R64_NW BOM_LAT BOM_LON BOM_TYPE BOM_WIND BOM_PRES BOM_TNUM BOM_CI BOM_RMW BOM_R34_NE BOM_R34_SE BOM_R34_SW BOM_R34_NW BOM_R50_NE BOM_R50_SE BOM_R50_SW BOM_R50_NW BOM_R64_NE BOM_R64_SE BOM_R64_SW BOM_R64_NW BOM_ROCI BOM_POCI BOM_EYE BOM_POS_METHOD BOM_PRES_METHOD NADI_LAT NADI_LON NADI_CAT NADI_WIND NADI_PRES WELLINGTON_LAT WELLINGTON_LON WELLINGTON_WIND WELLINGTON_PRES DS824_LAT DS824_LON DS824_STAGE DS824_WIND DS824_PRES TD9636_LAT TD9636_LON TD9636_STAGE TD9636_WIND TD9636_PRES TD9635_LAT TD9635_LON TD9635_WIND TD9635_PRES TD9635_ROCI NEUMANN_LAT NEUMANN_LON NEUMANN_CLASS NEUMANN_WIND NEUMANN_PRES MLC_LAT MLC_LON MLC_CLASS MLC_WIND MLC_PRES USA_GUST BOM_GUST BOM_GUST_PER REUNION_GUST REUNION_GUST_PER USA_SEAHGT USA_SEARAD_NE USA_SEARAD_SE USA_SEARAD_SW USA_SEARAD_NW STORM_SPEED STORM_DIR
1880230N15342 1880 13 NA NA NOT_NAMED 1880-08-17 06:00:00 TS 14.7000 -17.9000 main 43 43 _____________O -1 14.7000 -17.9000 TD 30 17 286
1880230N15342 1880 13 NA NA NOT_NAMED 1880-08-17 09:00:00 TS 14.9381 -18.7498 main 130 130 _____________P -1 14.9381 -18.7498 TD 35 17 287
1880230N15342 1880 13 NA NA NOT_NAMED 1880-08-17 12:00:00 TS 15.2000 -19.6000 main 232 232 _____________O -1 15.2000 -19.6000 TS 40 17 289
1880230N15342 1880 13 NA NA NOT_NAMED 1880-08-17 15:00:00 TS 15.4997 -20.4501 main 334 334 _____________P -1 15.4997 -20.4501 TS 42 17 290
1880230N15342 1880 13 NA NA NOT_NAMED 1880-08-17 18:00:00 TS 15.8000 -21.3000 main 426 426 _____________O -1 15.8000 -21.3000 TS 45 17 289
1880230N15342 1880 13 NA NA NOT_NAMED 1880-08-17 21:00:00 TS 16.0497 -22.1504 main 524 524 _____________P -1 16.0497 -22.1504 TS 50 17 287
1880230N15342 1880 13 NA NA NOT_NAMED 1880-08-18 00:00:00 TS 16.3000 -23.0000 main 616 616 _____________O -1 16.3000 -23.0000 TS 55 17 289
1880230N15342 1880 13 NA NA NOT_NAMED 1880-08-18 03:00:00 TS 16.5997 -23.8501 main 717 717 _____________P -1 16.5997 -23.8501 TS 55 17 290
1880230N15342 1880 13 NA NA NOT_NAMED 1880-08-18 06:00:00 TS 16.9000 -24.7000 main 808 808 _____________O -1 16.9000 -24.7000 TS 55 17 289
1880230N15342 1880 13 NA NA NOT_NAMED 1880-08-18 09:00:00 TS 17.1645 -25.5428 main 900 900 _____________P -1 17.1645 -25.5428 TS 55 17 287
1880230N15342 1880 13 NA NA NOT_NAMED 1880-08-18 12:00:00 TS 17.4000 -26.4000 main 998 998 _____________O -1 17.4000 -26.4000 TS 55 17 285
1880230N15342 1880 13 NA NA NOT_NAMED 1880-08-18 15:00:00 TS 17.6072 -27.2928 main 1095 1095 _____________P -1 17.6072 -27.2928 TS 55 18 283
1880230N15342 1880 13 NA NA NOT_NAMED 1880-08-18 18:00:00 TS 17.8000 -28.2000 main 1193 1193 _____________O -1 17.8000 -28.2000 TS 55 18 283
1880230N15342 1880 13 NA NA NOT_NAMED 1880-08-18 21:00:00 TS 17.9996 -29.1002 main 1291 1291 _____________P -1 17.9996 -29.1002 TS 55 18 283
1880230N15342 1880 13 NA NA NOT_NAMED 1880-08-19 00:00:00 TS 18.2000 -30.0000 main 1382 1382 _____________O -1 18.2000 -30.0000 TS 55 18 283
1880230N15342 1880 13 NA NA NOT_NAMED 1880-08-19 03:00:00 TS 18.4070 -30.8926 main 1469 1469 _____________P -1 18.4070 -30.8926 TS 55 18 283
1880230N15342 1880 13 NA NA NOT_NAMED 1880-08-19 06:00:00 TS 18.6000 -31.8000 main 1557 1557 _____________O -1 18.6000 -31.8000 TS 55 18 281
1880230N15342 1880 13 NA NA NOT_NAMED 1880-08-19 09:00:00 TS 18.7497 -32.7504 main 1658 1656 _____________P -1 18.7497 -32.7504 TS 55 18 279
1880230N15342 1880 13 NA NA NOT_NAMED 1880-08-19 12:00:00 TS 18.9000 -33.7000 main 1748 1748 _____________O -1 18.9000 -33.7000 TS 55 18 281
1880230N15342 1880 13 NA NA NOT_NAMED 1880-08-19 15:00:00 TS 19.0920 -34.6076 main 1837 1837 _____________P -1 19.0920 -34.6076 TS 55 17 283
1880230N15342 1880 13 NA NA NOT_NAMED 1880-08-19 18:00:00 TS 19.3000 -35.5000 main 1928 1928 _____________O -1 19.3000 -35.5000 TS 55 17 284
1880230N15342 1880 13 NA NA NOT_NAMED 1880-08-19 21:00:00 TS 19.4996 -36.4002 main 2018 2018 _____________P -1 19.4996 -36.4002 TS 55 17 283
1880230N15342 1880 13 NA NA NOT_NAMED 1880-08-20 00:00:00 TS 19.7000 -37.3000 main 2109 2109 _____________O -1 19.7000 -37.3000 TS 55 17 283
1880230N15342 1880 13 NA NA NOT_NAMED 1880-08-20 03:00:00 TS 19.8995 -38.2002 main 2200 2200 _____________P -1 19.8995 -38.2002 TS 55 17 283
1880230N15342 1880 13 NA NA NOT_NAMED 1880-08-20 06:00:00 TS 20.1000 -39.1000 main 2208 2169 _____________O -1 20.1000 -39.1000 TS 55 18 283
1880230N15342 1880 13 NA NA NOT_NAMED 1880-08-20 09:00:00 TS 20.2925 -40.0302 main 2169 2129 _____________P -1 20.2925 -40.0302 TS 55 17 283
1880230N15342 1880 13 NA NA NOT_NAMED 1880-08-20 12:00:00 TS 20.5000 -40.9000 main 2129 2103 _____________O -1 20.5000 -40.9000 TS 55 16 287
1880230N15342 1880 13 NA NA NOT_NAMED 1880-08-20 15:00:00 TS 20.7494 -41.6376 main 2103 2085 _____________P -1 20.7494 -41.6376 TS 55 14 291
1880230N15342 1880 13 NA NA NOT_NAMED 1880-08-20 18:00:00 TS 21.0000 -42.3000 main 2089 2070 _____________O -1 21.0000 -42.3000 TS 55 13 290
1880230N15342 1880 13 NA NA NOT_NAMED 1880-08-20 21:00:00 TS 21.1996 -42.9504 main 2069 2057 _____________P -1 21.1996 -42.9504 TS 55 13 288
1880230N15342 1880 13 NA NA NOT_NAMED 1880-08-21 00:00:00 TS 21.4000 -43.6000 main 2057 2041 _____________O -1 21.4000 -43.6000 TS 55 13 290
1880230N15342 1880 13 NA NA NOT_NAMED 1880-08-21 03:00:00 TS 21.6499 -44.3000 main 2041 2038 _____________P -1 21.6499 -44.3000 TS 55 14 291
1880230N15342 1880 13 NA NA NOT_NAMED 1880-08-21 06:00:00 TS 21.9000 -45.0000 main 2039 2027 _____________O -1 21.9000 -45.0000 TS 55 13 290
1880230N15342 1880 13 NA NA NOT_NAMED 1880-08-21 09:00:00 TS 22.0996 -45.6505 main 2030 2021 _____________P -1 22.0996 -45.6505 TS 55 13 288
1880230N15342 1880 13 NA NA NOT_NAMED 1880-08-21 12:00:00 TS 22.3000 -46.3000 main 2022 1989 _____________O -1 22.3000 -46.3000 TS 55 13 290
1880230N15342 1880 13 NA NA NOT_NAMED 1880-08-21 15:00:00 TS 22.5423 -46.9926 main 1989 1925 _____________P -1 22.5423 -46.9926 TS 55 14 291
1880230N15342 1880 13 NA NA NOT_NAMED 1880-08-21 18:00:00 TS 22.8000 -47.7000 main 1925 1859 _____________O -1 22.8000 -47.7000 TS 55 14 292
1880230N15342 1880 13 NA NA NOT_NAMED 1880-08-21 21:00:00 TS 23.0573 -48.4076 main 1862 1798 _____________P -1 23.0573 -48.4076 TS 55 14 291
1880230N15342 1880 13 NA NA NOT_NAMED 1880-08-22 00:00:00 TS 23.3000 -49.1000 main 1798 1745 _____________O -1 23.3000 -49.1000 TS 55 13 290
1880230N15342 1880 13 NA NA NOT_NAMED 1880-08-22 03:00:00 TS 23.5070 -49.7504 main 1735 1683 _____________P -1 23.5070 -49.7504 TS 55 13 289
1880230N15342 1880 13 NA NA NOT_NAMED 1880-08-22 06:00:00 TS 23.7000 -50.4000 main 1683 1623 _____________O -1 23.7000 -50.4000 TS 55 13 287
1880230N15342 1880 13 NA NA NOT_NAMED 1880-08-22 09:00:00 TS 23.8923 -51.0928 main 1623 1564 _____________P -1 23.8923 -51.0928 TS 55 13 287
1880230N15342 1880 13 NA NA NOT_NAMED 1880-08-22 12:00:00 TS 24.1000 -51.8000 main 1564 1507 _____________O -1 24.1000 -51.8000 TS 55 14 289
1880230N15342 1880 13 NA NA NOT_NAMED 1880-08-22 15:00:00 TS 24.3423 -52.5076 main 1507 1456 _____________P -1 24.3423 -52.5076 TS 55 14 291
1880230N15342 1880 13 NA NA NOT_NAMED 1880-08-22 18:00:00 TS 24.6000 -53.2000 main 1456 1418 _____________O -1 24.6000 -53.2000 TS 55 13 294
1880230N15342 1880 13 NA NA NOT_NAMED 1880-08-22 21:00:00 TS 24.8796 -53.8573 main 1409 1368 _____________P -1 24.8796 -53.8573 TS 57 13 293
1880230N15342 1880 13 NA NA NOT_NAMED 1880-08-23 00:00:00 TS 25.1000 -54.5000 main 1368 1322 _____________O -1 25.1000 -54.5000 TS 60 12 284
1880230N15342 1880 13 NA NA NOT_NAMED 1880-08-23 03:00:00 TS 25.1797 -55.1505 main 1314 1264 _____________P -1 25.1797 -55.1505 TS 60 12 275
1880230N15342 1880 13 NA NA NOT_NAMED 1880-08-23 06:00:00 TS 25.2000 -55.8000 main 1264 1215 _____________O -1 25.2000 -55.8000 TS 60 12 273
1880230N15342 1880 13 NA NA NOT_NAMED 1880-08-23 09:00:00 TS 25.2497 -56.4501 main 1207 1167 _____________P -1 25.2497 -56.4501 TS 60 12 275
1880230N15342 1880 13 NA NA NOT_NAMED 1880-08-23 12:00:00 TS 25.3000 -57.1000 main 1167 1121 _____________O -1 25.3000 -57.1000 TS 60 12 275
1880230N15342 1880 13 NA NA NOT_NAMED 1880-08-23 15:00:00 TS 25.3497 -57.7501 main 1114 1078 _____________P -1 25.3497 -57.7501 TS 60 12 275
1880230N15342 1880 13 NA NA NOT_NAMED 1880-08-23 18:00:00 TS 25.4000 -58.4000 main 1078 1045 _____________O -1 25.4000 -58.4000 TS 60 12 276
1880230N15342 1880 13 NA NA NOT_NAMED 1880-08-23 21:00:00 TS 25.4799 -59.0646 main 1038 1020 _____________P -1 25.4799 -59.0646 TS 62 5 252
1880230N15342 1880 13 NA NA NOT_NAMED 1880-08-24 00:00:00 TS 25.2333 -58.9667 50 hurdat_atl main 1020 1005 O____________O hurdat_atl AL041880 24.7000 -57.5000 TS 50 0 25.5000 -59.7000 HU 65 4 190
1880230N15342 1880 13 NA NA NOT_NAMED 1880-08-24 03:00:00 TS 25.0737 -59.1565 main 998 969 P____________P AL041880 24.8129 -58.0472 TS 50 0 25.3346 -60.2659 HU 67 5 245
1880230N15342 1880 13 NA NA NOT_NAMED 1880-08-24 06:00:00 TS 25.0200 -59.4800 50 hurdat_atl main 969 952 O____________O hurdat_atl AL041880 24.9000 -58.6000 TS 50 0 25.2000 -60.8000 HU 70 7 270
1880230N15342 1880 13 NA NA NOT_NAMED 1880-08-24 09:00:00 TS 25.0757 -59.8882 main 952 927 P____________P AL041880 24.9499 -59.1577 TS 50 0 25.3273 -61.3492 HU 72 9 280
1880230N15342 1880 13 NA NA NOT_NAMED 1880-08-24 12:00:00 TS 25.1667 -60.4333 50 hurdat_atl main 930 901 O____________O hurdat_atl AL041880 25.0000 -59.7000 TS 50 0 25.5000 -61.9000 HU 75 10 279
1880230N15342 1880 13 NA NA NOT_NAMED 1880-08-24 15:00:00 TS 25.2356 -60.9526 main 896 884 P____________P AL041880 25.0847 -60.2001 TS 50 0 25.5374 -62.4576 HU 77 9 278
1880230N15342 1880 13 NA NA NOT_NAMED 1880-08-24 18:00:00 TS 25.3000 -61.4667 50 hurdat_atl main 879 860 O____________O hurdat_atl AL041880 25.2000 -60.7000 TS 50 0 25.5000 -63.0000 HU 80 10 278
1880230N15342 1880 13 NA NA NOT_NAMED 1880-08-24 21:00:00 TS 25.3641 -62.0051 main 866 845 P____________P AL041880 25.3500 -61.2499 TS 55 0 25.3923 -63.5154 HU 82 10 278
1880230N15342 1880 13 NA NA NOT_NAMED 1880-08-25 00:00:00 TS 25.4333 -62.5333 60 hurdat_atl main 845 837 O____________O hurdat_atl AL041880 25.5000 -61.8000 TS 60 0 25.3000 -64.0000 HU 85 9 279
1880230N15342 1880 13 NA NA NOT_NAMED 1880-08-25 03:00:00 TS 25.5139 -63.0242 main 837 831 P____________P AL041880 25.5998 -62.3078 TS 60 0 25.3423 -64.4571 HU 87 9 281
1880230N15342 1880 13 NA NA NOT_NAMED 1880-08-25 06:00:00 TS 25.6000 -63.5000 60 hurdat_atl main 833 826 O____________O hurdat_atl AL041880 25.7000 -62.8000 TS 60 0 25.4000 -64.9000 HU 90 9 281
1880230N15342 1880 13 NA NA NOT_NAMED 1880-08-25 09:00:00 TS 25.6856 -63.9759 main 832 825 P____________P AL041880 25.8497 -63.2850 TS 60 0 25.3574 -65.3577 HU 90 9 281
1880230N15342 1880 13 NA NA NOT_NAMED 1880-08-25 12:00:00 TS 25.7667 -64.4667 60 hurdat_atl main 835 829 O____________O hurdat_atl AL041880 26.0000 -63.8000 TS 60 0 25.3000 -65.8000 HU 90 9 279
1880230N15342 1880 13 NA NA NOT_NAMED 1880-08-25 15:00:00 TS 25.8383 -64.9950 main 829 828 P____________P AL041880 26.1075 -64.3926 TS 60 0 25.2998 -66.1998 HU 90 10 278
1880230N15342 1880 13 NA NA NOT_NAMED 1880-08-25 18:00:00 TS 25.9000 -65.5333 60 hurdat_atl main 834 811 O____________O hurdat_atl AL041880 26.2000 -65.0000 TS 60 0 25.3000 -66.6000 HU 90 10 277
1880230N15342 1880 13 NA NA NOT_NAMED 1880-08-25 21:00:00 TS 25.9497 -66.0476 main 811 800 P____________P AL041880 26.2996 -65.5501 TS 65 1 25.2499 -67.0426 HU 90 9 276
1880230N15342 1880 13 NA NA NOT_NAMED 1880-08-26 00:00:00 TS 26.0000 -66.5667 70 hurdat_atl main 795 778 O____________O hurdat_atl AL041880 26.4000 -66.1000 HU 70 1 25.2000 -67.5000 HU 90 10 277
1880230N15342 1880 13 NA NA NOT_NAMED 1880-08-26 03:00:00 TS 26.0690 -67.1116 main 784 766 P____________P AL041880 26.5073 -66.6925 HU 70 1 25.1924 -67.9499 HU 90 10 278
1880230N15342 1880 13 NA NA NOT_NAMED 1880-08-26 06:00:00 TS 26.1333 -67.6667 70 hurdat_atl main 763 742 O____________O hurdat_atl AL041880 26.6000 -67.3000 HU 70 1 25.2000 -68.4000 HU 90 10 276
1880230N15342 1880 13 NA NA NOT_NAMED 1880-08-26 09:00:00 TS 26.1665 -68.2218 main 742 709 P____________P AL041880 26.6498 -67.9078 HU 75 1 25.1999 -68.8500 HU 92 10 274
1880230N15342 1880 13 NA NA NOT_NAMED 1880-08-26 12:00:00 TS 26.2000 -68.7667 80 hurdat_atl main 703 673 O____________O hurdat_atl AL041880 26.7000 -68.5000 HU 80 1 25.2000 -69.3000 HU 95 10 275
1880230N15342 1880 13 NA NA NOT_NAMED 1880-08-26 15:00:00 TS 26.2488 -69.2785 main 673 656 P____________P AL041880 26.7920 -69.0425 HU 80 1 25.1624 -69.7504 HU 95 9 278
1880230N15342 1880 13 NA NA NOT_NAMED 1880-08-26 18:00:00 TS 26.3333 -69.8000 80 hurdat_atl main 656 647 O____________O hurdat_atl AL041880 26.9000 -69.6000 HU 80 1 25.2000 -70.2000 HU 95 962 10 283
1880230N15342 1880 13 NA NA NOT_NAMED 1880-08-26 21:00:00 TS 26.4833 -70.3781 main 648 640 P____________P AL041880 27.0075 -70.2424 HU 85 2 25.4349 -70.6495 HU 95 11 286
1880230N15342 1880 13 NA NA NOT_NAMED 1880-08-27 00:00:00 TS 26.6333 -70.9667 90 hurdat_atl main 636 633 O____________O hurdat_atl AL041880 27.1000 -70.9000 HU 90 2 25.7000 -71.1000 HU 95 10 283
1880230N15342 1880 13 NA NA NOT_NAMED 1880-08-27 03:00:00 TS 26.7097 -71.5169 main 633 624 P____________P AL041880 27.1570 -71.5002 HU 90 2 25.8149 -71.5504 HU 97 10 278
1880230N15342 1880 13 NA NA NOT_NAMED 1880-08-27 06:00:00 TS 26.7667 -72.0667 90 hurdat_atl main 616 570 O____________O hurdat_atl AL041880 27.2000 -72.1000 HU 90 2 25.9000 -72.0000 MH 100 10 278
1880230N15342 1880 13 NA NA NOT_NAMED 1880-08-27 09:00:00 TS 26.8500 -72.6600 main 565 519 P____________P AL041880 27.2501 -72.7650 HU 90 2 26.0499 -72.4499 MH 100 11 279
1880230N15342 1880 13 NA NA NOT_NAMED 1880-08-27 12:00:00 TS 26.9333 -73.2333 90 hurdat_atl main 519 478 O____________O hurdat_atl AL041880 27.3000 -73.4000 HU 90 2 26.2000 -72.9000 MH 100 10 279
1880230N15342 1880 13 NA NA NOT_NAMED 1880-08-27 15:00:00 TS 26.9997 -73.7318 main 478 440 P____________P AL041880 27.3496 -73.9226 HU 90 2 26.2999 -73.3503 MH 100 9 279
1880230N15342 1880 13 NA NA NOT_NAMED 1880-08-27 18:00:00 TS 27.0667 -74.2000 90 hurdat_atl main 440 397 O____________O hurdat_atl AL041880 27.4000 -74.4000 HU 90 2 26.4000 -73.8000 MH 100 9 280
1880230N15342 1880 13 NA NA NOT_NAMED 1880-08-27 21:00:00 TS 27.1448 -74.6784 main 397 372 P____________P AL041880 27.4422 -74.8927 HU 90 2 26.5499 -74.2499 MH 100 9 281
1880230N15342 1880 13 NA NA NOT_NAMED 1880-08-28 00:00:00 TS 27.2333 -75.1667 90 hurdat_atl main 364 336 O____________O hurdat_atl AL041880 27.5000 -75.4000 HU 90 2 26.7000 -74.7000 MH 100 9 282
1880230N15342 1880 13 NA NA NOT_NAMED 1880-08-28 03:00:00 TS 27.3333 -75.6833 main 336 313 P____________P AL041880 27.6000 -75.9498 HU 90 2 26.7999 -75.1503 MH 100 9 282
1880230N15342 1880 13 NA NA NOT_NAMED 1880-08-28 06:00:00 TS 27.4333 -76.2000 90 hurdat_atl main 313 297 O____________O hurdat_atl AL041880 27.7000 -76.5000 HU 90 2 26.9000 -75.6000 MH 100 9 282
1880230N15342 1880 13 NA NA NOT_NAMED 1880-08-28 09:00:00 TS 27.5214 -76.6884 main 297 293 P____________P AL041880 27.7572 -77.0077 HU 90 2 27.0499 -76.0499 MH 100 9 281
1880230N15342 1880 13 NA NA NOT_NAMED 1880-08-28 12:00:00 TS 27.6000 -77.1667 90 hurdat_atl main 290 257 O____________O hurdat_atl AL041880 27.8000 -77.5000 HU 90 2 27.2000 -76.5000 MH 100 9 280
1880230N15342 1880 13 NA NA NOT_NAMED 1880-08-28 15:00:00 TS 27.6665 -77.6526 main 248 212 P____________P AL041880 27.8499 -78.0075 HU 90 2 27.2998 -76.9428 MH 100 9 279
1880230N15342 1880 13 NA NA NOT_NAMED 1880-08-28 18:00:00 TS 27.7333 -78.1333 90 hurdat_atl main 212 171 O____________O hurdat_atl AL041880 27.9000 -78.5000 HU 90 2 27.4000 -77.4000 MH 100 9 280
1880230N15342 1880 13 NA NA NOT_NAMED 1880-08-28 21:00:00 TS 27.8165 -78.6100 main 171 139 P____________P AL041880 27.9499 -78.9725 HU 90 2 27.5498 -77.8849 MH 100 8 281
1880230N15342 1880 13 NA NA NOT_NAMED 1880-08-29 00:00:00 TS 27.9000 -79.0667 90 972 hurdat_atl main 130 98 O____________O hurdat_atl AL041880 28.0000 -79.4000 HU 90 972 2 27.7000 -78.4000 MH 100 955 8 281
1880230N15342 1880 13 NA NA NOT_NAMED 1880-08-29 03:00:00 TS 27.9640 -79.5010 main 98 59 P____________P AL041880 28.0499 -79.7800 HU 90 2 27.7924 -78.9429 MH 100 963 7 280
1880230N15342 1880 13 NA NA NOT_NAMED 1880-08-29 06:00:00 TS 28.0333 -79.9000 90 hurdat_atl main 59 29 O____________O hurdat_atl AL041880 28.1000 -80.1000 HU 90 2 27.9000 -79.5000 MH 100 972 7 285
1880230N15342 1880 13 NA NA NOT_NAMED 1880-08-29 09:00:00 TS 28.1408 -80.2698 main 29 9 P____________P AL041880 28.1499 -80.3650 HU 90 2 28.1226 -80.0794 MH 100 6 288
1880230N15342 1880 13 NA NA NOT_NAMED 1880-08-29 12:00:00 TS 28.2333 -80.6000 90 hurdat_atl main 9 0 O____________O hurdat_atl AL041880 28.2000 -80.6000 L HU 90 2 28.3000 -80.6000 MH 100 6 283
1880230N15342 1880 13 NA NA NOT_NAMED 1880-08-29 15:00:00 TS 28.2623 -80.8910 main 0 0 P____________P AL041880 28.2500 -80.8500 HU 80 1 28.2871 -80.9729 MH 95 5 274
1880230N15342 1880 13 NA NA NOT_NAMED 1880-08-29 18:00:00 TS 28.2667 -81.1667 70 hurdat_atl main 0 0 O____________O hurdat_atl AL041880 28.3000 -81.1000 HU 70 1 28.2000 -81.3000 HU 90 5 272
1880230N15342 1880 13 NA NA NOT_NAMED 1880-08-29 21:00:00 TS 28.2833 -81.4667 main 0 0 P____________P AL041880 28.3500 -81.3500 HU 65 1 28.1500 -81.7000 HU 85 5 274
1880230N15342 1880 13 NA NA NOT_NAMED 1880-08-30 00:00:00 TS 28.3000 -81.7667 60 hurdat_atl main 0 0 O____________O hurdat_atl AL041880 28.4000 -81.6000 TS 60 0 28.1000 -82.1000 HU 80 5 271
1880230N15342 1880 13 NA NA NOT_NAMED 1880-08-30 03:00:00 TS 28.2967 -82.0676 main 0 0 P____________P AL041880 28.4425 -81.8501 TS 60 0 28.0051 -82.5027 HU 77 5 274
1880230N15342 1880 13 NA NA NOT_NAMED 1880-08-30 06:00:00 TS 28.3333 -82.3333 60 hurdat_atl main 0 0 O____________O hurdat_atl AL041880 28.5000 -82.1000 TS 60 0 28.0000 -82.8000 HU 75 4 293
1880230N15342 1880 13 NA NA NOT_NAMED 1880-08-30 09:00:00 TS 28.4581 -82.4969 main 0 0 P____________P AL041880 28.5849 -82.3351 TS 60 0 28.2045 -82.8206 HU 72 4 313
1880230N15342 1880 13 NA GM NOT_NAMED 1880-08-30 12:00:00 TS 28.6333 -82.7000 60 hurdat_atl main 9 9 O____________O hurdat_atl AL041880 28.7000 -82.6000 TS 60 0 28.5000 -82.9000 HU 70 6 304
1880230N15342 1880 13 NA GM NOT_NAMED 1880-08-30 15:00:00 TS 28.8068 -83.0767 main 36 34 P____________P AL041880 28.8350 -82.9276 TS 65 1 28.7504 -83.3747 HU 70 8 297
1880230N15342 1880 13 NA GM NOT_NAMED 1880-08-30 18:00:00 TS 29.0000 -83.5333 70 hurdat_atl main 44 44 O____________O hurdat_atl AL041880 29.0000 -83.3000 HU 70 1 29.0000 -84.0000 HU 70 9 297
1880230N15342 1880 13 NA GM NOT_NAMED 1880-08-30 21:00:00 TS 29.2087 -83.9636 main 67 53 P____________P AL041880 29.1881 -83.6703 HU 70 1 29.2498 -84.5503 HU 67 9 299
1880230N15342 1880 13 NA GM NOT_NAMED 1880-08-31 00:00:00 TS 29.4333 -84.4333 70 hurdat_atl main 53 0 O____________O hurdat_atl AL041880 29.4000 -84.1000 HU 70 1 29.5000 -85.1000 HU 65 10 298
1880230N15342 1880 13 NA GM NOT_NAMED 1880-08-31 03:00:00 TS 29.6728 -84.9863 main 0 0 P____________P AL041880 29.6342 -84.6506 HU 70 1 29.7499 -85.6577 HU 62 10 297
1880230N15342 1880 13 NA GM NOT_NAMED 1880-08-31 04:00:00 TS 29.7444 -85.1471 70 hurdat_atl main 0 0 O____________P hurdat_atl AL041880 29.7000 -84.8000 L HU 70 1 29.8332 -85.8414 HU 61 8 298
1880230N15342 1880 13 NA GM NOT_NAMED 1880-08-31 06:00:00 TS 29.8667 -85.4000 70 hurdat_atl main 0 0 O____________O hurdat_atl AL041880 29.8000 -85.0000 HU 70 1 30.0000 -86.2000 TS 60 9 296
1880230N15342 1880 13 NA GM NOT_NAMED 1880-08-31 09:00:00 TS 30.0639 -85.8865 main 11 11 P____________P AL041880 29.9820 -85.4535 HU 65 1 30.2276 -86.7526 TS 57 10 297
1880230N15342 1880 13 NA GM NOT_NAMED 1880-08-31 12:00:00 TS 30.3000 -86.4000 60 hurdat_atl main 22 0 O____________O hurdat_atl AL041880 30.2000 -86.0000 TS 60 0 30.5000 -87.2000 TS 55 992 10 302
1880230N15342 1880 13 NA NA NOT_NAMED 1880-08-31 15:00:00 TS 30.5749 -86.8278 main 0 0 P____________P AL041880 30.4275 -86.5152 TS 60 0 30.8697 -87.4529 TS 52 9 311
1880230N15342 1880 13 NA NA NOT_NAMED 1880-08-31 18:00:00 TS 30.9000 -87.2000 60 hurdat_atl main 0 0 O____________O hurdat_atl AL041880 30.7000 -87.0000 TS 60 0 31.3000 -87.6000 TS 50 9 319
1880230N15342 1880 13 NA NA NOT_NAMED 1880-08-31 21:00:00 TS 31.2682 -87.5393 main 0 0 P____________P AL041880 31.0274 -87.4301 TS 55 0 31.7500 -87.7577 TS 47 9 325
1880230N15342 1880 13 NA NA NOT_NAMED 1880-09-01 00:00:00 TS 31.6667 -87.8333 50 hurdat_atl main 0 0 O____________O hurdat_atl AL041880 31.4000 -87.8000 TS 50 0 32.2000 -87.9000 TS 45 9 329
1880230N15342 1880 13 NA NA NOT_NAMED 1880-09-01 03:00:00 TS 32.0640 -88.0936 main 0 0 P____________P AL041880 31.7923 -88.1154 TS 45 0 32.6075 -88.0502 TS 40 9 332
1880230N15342 1880 13 NA NA NOT_NAMED 1880-09-01 06:00:00 TS 32.4667 -88.3333 40 hurdat_atl main 0 0 O____________O hurdat_atl AL041880 32.2000 -88.4000 TS 40 0 33.0000 -88.2000 TS 35 9 332
1880230N15342 1880 13 NA NA NOT_NAMED 1880-09-01 09:00:00 TS 32.8768 -88.6156 main 0 0 P____________P AL041880 32.6226 -88.7372 TS 35 0 33.3850 -88.3723 TS 32 9 335
1880230N15342 1880 13 NA NA NOT_NAMED 1880-09-01 12:00:00 TS 33.3200 -88.8000 30 hurdat_atl main 0 0 O____________O hurdat_atl AL041880 33.0000 -89.0000 TD 30 -1 33.8000 -88.5000 TD 30 9 350
1880230N15342 1880 13 NA NA NOT_NAMED 1880-09-01 15:00:00 TS 33.7824 -88.8116 main 0 0 P____________P AL041880 33.2799 -89.1004 TD 30 -1 34.2850 -88.5228 TD 25 11 4
1880230N15342 1880 13 NA NA NOT_NAMED 1880-09-01 18:00:00 TS 34.3667 -88.7000 30 hurdat_atl main 0 0 O____________O hurdat_atl AL041880 33.5000 -89.1000 TD 30 -1 34.8000 -88.5000 TD 20 15 9
1880230N15342 1880 13 NA NA NOT_NAMED 1880-09-01 21:00:00 TS 35.3000 -88.5147 main 0 0 _____________P AL041880 TD -1 35.3000 -88.5147 TD 20 14 6
1880230N15342 1880 13 NA NA NOT_NAMED 1880-09-02 00:00:00 TS 35.8000 -88.5000 main 0 0 _____________O -1 35.8000 -88.5000 TD 20 10 5
1880230N15342 1880 13 NA NA NOT_NAMED 1880-09-02 03:00:00 TS 36.3000 -88.4078 main 0 0 _____________P -1 36.3000 -88.4078 TD 20 10 9
1880230N15342 1880 13 NA NA NOT_NAMED 1880-09-02 06:00:00 TS 36.8000 -88.3000 main 0 0 _____________O -1 36.8000 -88.3000 TD 20 10 8
1880230N15342 1880 13 NA NA NOT_NAMED 1880-09-02 09:00:00 TS 37.3000 -88.2348 main 0 0 _____________P -1 37.3000 -88.2348 TD 20 10 5
1880230N15342 1880 13 NA NA NOT_NAMED 1880-09-02 12:00:00 TS 37.8000 -88.2000 main 0 _____________O -1 37.8000 -88.2000 TD 20 10 2

IBTrACS Databaseについて

本データベースは、米国NOAAが公開する1842年以降の世界の熱帯低気圧のベストトラックデータアーカイブInternational Best Track Archive for Climate Stewardship (IBTrACS)を、ウェブで閲覧しやすい形式に変換したものです。

最終更新日:2021-11-26